createdAt,value
2022-08-03T00:00:48.197Z,21.05
2022-08-03T00:06:04.419Z,21.16
2022-08-03T00:11:06.621Z,21.23
2022-08-03T00:16:08.170Z,21.23
2022-08-03T00:21:09.549Z,21.29
2022-08-03T00:26:10.722Z,20.94
2022-08-03T00:31:13.670Z,19.74
2022-08-03T00:36:16.056Z,18.91
2022-08-03T00:41:17.224Z,18.93
2022-08-03T00:46:21.715Z,19.94
2022-08-03T00:51:23.425Z,20.20
2022-08-03T00:56:25.863Z,20.36
2022-08-03T01:01:27.101Z,20.48
2022-08-03T01:06:45.240Z,20.57
2022-08-03T01:11:59.769Z,20.65
2022-08-03T01:17:16.599Z,20.70
2022-08-03T01:22:36.333Z,20.40
2022-08-03T01:27:54.026Z,19.22
2022-08-03T01:33:01.971Z,18.40
2022-08-03T01:38:11.238Z,18.62
2022-08-03T01:44:28.093Z,20.32
2022-08-03T01:48:41.471Z,20.81
2022-08-03T01:53:44.597Z,20.70
2022-08-03T01:58:49.176Z,20.71
2022-08-03T02:04:00.431Z,20.76
2022-08-03T02:09:04.910Z,20.35
2022-08-03T02:14:07.384Z,19.17
2022-08-03T02:19:10.387Z,18.38
2022-08-03T02:24:11.941Z,18.25
2022-08-03T02:29:17.929Z,19.04
2022-08-03T02:34:21.529Z,19.50
2022-08-03T02:39:25.509Z,19.78
2022-08-03T02:44:27.771Z,19.98
2022-08-03T02:49:41.359Z,20.14
2022-08-03T02:54:54.222Z,20.29
2022-08-03T02:59:56.976Z,20.40
2022-08-03T03:05:55.047Z,20.50
2022-08-03T03:10:22.446Z,20.55
2022-08-03T03:15:30.325Z,20.58
2022-08-03T03:20:34.856Z,20.64
2022-08-03T03:25:37.540Z,20.72
2022-08-03T03:30:38.762Z,20.84
2022-08-03T03:35:42.389Z,21.12
2022-08-03T03:40:43.928Z,20.98
2022-08-03T03:45:46.630Z,19.82
2022-08-03T03:50:49.126Z,19.00
2022-08-03T03:55:58.937Z,18.91
2022-08-03T04:01:04.058Z,19.93
2022-08-03T04:06:23.997Z,20.49
2022-08-03T04:11:31.839Z,20.69
2022-08-03T04:16:43.184Z,20.92
2022-08-03T04:21:50.248Z,21.20
2022-08-03T04:26:53.936Z,21.47
2022-08-03T04:31:58.306Z,21.65
2022-08-03T04:37:04.890Z,21.36
2022-08-03T04:42:09.178Z,20.29
2022-08-03T04:47:10.706Z,19.61
2022-08-03T04:52:12.274Z,19.61
2022-08-03T04:57:21.971Z,20.58
2022-08-03T05:02:23.979Z,21.32
2022-08-03T05:07:25.454Z,21.84
2022-08-03T05:12:32.032Z,22.33
2022-08-03T05:17:33.919Z,22.25
2022-08-03T05:22:35.125Z,21.56
2022-08-03T05:27:36.305Z,21.39
2022-08-03T05:32:37.434Z,21.99
2022-08-03T05:37:38.578Z,24.96
2022-08-03T05:42:56.925Z,28.43
2022-08-03T05:47:59.298Z,31.34
2022-08-03T05:53:00.467Z,33.63
2022-08-03T05:58:03.157Z,35.41
2022-08-03T06:03:04.676Z,36.72
2022-08-03T06:08:05.856Z,37.86
2022-08-03T06:13:07.024Z,38.77
2022-08-03T06:18:08.231Z,38.03
2022-08-03T06:23:15.942Z,36.15
2022-08-03T06:28:52.813Z,35.05
2022-08-03T06:34:30.136Z,33.98
2022-08-03T06:39:01.313Z,33.02
2022-08-03T06:44:04.463Z,34.36
2022-08-03T06:49:07.157Z,35.49
2022-08-03T06:54:08.385Z,36.12
2022-08-03T06:59:09.566Z,37.61
2022-08-03T07:04:30.653Z,38.01
2022-08-03T07:09:31.992Z,36.74
2022-08-03T07:14:33.131Z,35.28
2022-08-03T07:19:35.540Z,34.58
2022-08-03T07:24:37.809Z,34.71
2022-08-03T07:29:38.948Z,36.01
2022-08-03T07:34:40.119Z,36.97
2022-08-03T07:39:41.748Z,37.50
2022-08-03T07:44:43.946Z,38.04
2022-08-03T07:49:45.557Z,37.57
2022-08-03T07:54:46.752Z,37.49
2022-08-03T07:59:49.132Z,37.42
2022-08-03T08:05:02.190Z,36.67
2022-08-03T08:10:09.141Z,35.83
2022-08-03T08:15:10.329Z,34.82
2022-08-03T08:20:16.491Z,33.77
2022-08-03T08:25:26.165Z,33.10
2022-08-03T08:30:28.708Z,32.45
2022-08-03T08:35:32.604Z,31.91
2022-08-03T08:40:36.804Z,31.60
2022-08-03T08:45:39.651Z,31.38
2022-08-03T08:50:41.342Z,31.37
2022-08-03T08:55:59.383Z,31.48
2022-08-03T09:01:03.775Z,31.68
2022-08-03T09:06:06.003Z,31.96
2022-08-03T09:11:07.377Z,32.07
2022-08-03T09:16:13.864Z,31.92
2022-08-03T09:21:35.159Z,31.89
2022-08-03T09:26:37.224Z,31.83
2022-08-03T09:31:43.565Z,31.98
2022-08-03T09:36:47.127Z,32.43
2022-08-03T09:42:03.192Z,32.55
2022-08-03T09:47:09.171Z,32.24
2022-08-03T09:52:36.806Z,32.00
2022-08-03T09:57:45.767Z,31.95
2022-08-03T10:02:49.749Z,32.03
2022-08-03T10:07:50.946Z,32.00
2022-08-03T10:12:52.187Z,32.04
2022-08-03T10:17:53.403Z,32.12
2022-08-03T10:22:55.640Z,32.09
2022-08-03T10:27:59.306Z,32.12
2022-08-03T10:33:51.060Z,32.24
2022-08-03T10:38:45.259Z,32.33
2022-08-03T10:43:58.185Z,32.44
2022-08-03T10:49:03.146Z,32.46
2022-08-03T10:54:04.332Z,32.42
2022-08-03T10:59:05.635Z,32.23
2022-08-03T11:04:18.203Z,31.95
2022-08-03T11:09:19.447Z,31.64
2022-08-03T11:14:21.441Z,31.41
2022-08-03T11:19:27.674Z,31.42
2022-08-03T11:24:53.410Z,31.45
2022-08-03T11:30:08.669Z,31.56
2022-08-03T11:35:18.006Z,31.64
2022-08-03T11:40:45.698Z,31.67
2022-08-03T11:46:05.607Z,31.67
2022-08-03T11:51:17.857Z,31.65
2022-08-03T11:56:19.680Z,31.59
2022-08-03T12:01:23.254Z,31.45
2022-08-03T12:06:24.427Z,31.30
2022-08-03T12:11:26.017Z,31.12
2022-08-03T12:16:28.016Z,31.06
2022-08-03T12:21:29.851Z,31.07
2022-08-03T12:26:58.816Z,30.89
2022-08-03T12:32:01.057Z,30.87
2022-08-03T12:37:04.745Z,31.00
2022-08-03T12:42:42.198Z,31.16
2022-08-03T12:47:50.994Z,31.23
2022-08-03T12:52:52.160Z,31.38
2022-08-03T12:57:53.266Z,31.46
2022-08-03T13:08:28.243Z,31.45
2022-08-03T13:13:48.852Z,31.36
2022-08-03T13:18:52.005Z,31.07
2022-08-03T13:23:54.205Z,31.06
2022-08-03T13:28:55.217Z,31.01
2022-08-03T13:33:56.334Z,30.93
2022-08-03T13:38:57.483Z,30.85
2022-08-03T13:44:26.165Z,30.80
2022-08-03T13:49:19.658Z,30.81
2022-08-03T13:54:20.952Z,30.85
2022-08-03T13:59:23.397Z,30.85
2022-08-03T14:04:24.521Z,30.97
2022-08-03T14:09:25.661Z,30.99
2022-08-03T14:14:26.882Z,30.94
2022-08-03T14:19:27.984Z,30.92
2022-08-03T14:24:29.444Z,31.01
2022-08-03T14:29:30.471Z,31.10
2022-08-03T14:34:31.678Z,30.90
2022-08-03T14:44:57.344Z,29.88
2022-08-03T14:50:30.261Z,29.69
2022-08-03T14:55:25.830Z,29.78
2022-08-03T15:00:39.133Z,29.99
2022-08-03T15:05:40.255Z,30.16
2022-08-03T15:10:45.445Z,30.24
2022-08-03T15:15:48.767Z,30.30
2022-08-03T15:20:50.070Z,30.34
2022-08-03T15:26:31.646Z,30.34
2022-08-03T15:31:12.425Z,30.27
2022-08-03T15:36:20.561Z,30.26
2022-08-03T15:41:21.763Z,30.24
2022-08-03T15:46:30.395Z,30.27
2022-08-03T15:51:31.535Z,30.24
2022-08-03T15:56:32.795Z,30.17
2022-08-03T16:01:34.080Z,30.10
2022-08-03T16:06:36.597Z,30.02
2022-08-03T16:11:37.896Z,30.01
2022-08-03T16:16:40.091Z,29.94
2022-08-03T16:21:48.179Z,29.89
2022-08-03T16:26:50.325Z,29.78
2022-08-03T16:31:52.521Z,29.69
2022-08-03T16:36:53.832Z,29.65
2022-08-03T16:42:01.247Z,29.55
2022-08-03T16:47:03.016Z,29.50
2022-08-03T16:52:04.412Z,29.45
2022-08-03T16:57:05.526Z,29.35
2022-08-03T17:02:10.437Z,29.26
2022-08-03T17:07:13.318Z,29.15
2022-08-03T17:12:16.066Z,29.04
2022-08-03T17:17:27.076Z,28.92
2022-08-03T17:22:33.221Z,28.80
2022-08-03T17:28:50.746Z,28.63
2022-08-03T17:32:58.232Z,28.48
2022-08-03T17:38:03.490Z,28.34
2022-08-03T17:44:14.247Z,28.18
2022-08-03T17:48:32.614Z,28.00
2022-08-03T17:53:37.834Z,27.83
2022-08-03T17:58:54.014Z,27.63
2022-08-03T18:04:02.120Z,27.42
2022-08-03T18:10:04.992Z,27.18
2022-08-03T18:14:57.259Z,26.92
2022-08-03T18:20:02.878Z,26.64
2022-08-03T18:25:09.869Z,26.39
2022-08-03T18:30:14.669Z,26.14
2022-08-03T18:35:19.038Z,25.90
2022-08-03T18:40:26.330Z,25.68
2022-08-03T18:45:57.108Z,25.46
2022-08-03T18:51:06.826Z,25.25
2022-08-03T18:56:30.833Z,25.04
2022-08-03T19:02:00.108Z,24.80
2022-08-03T19:07:07.929Z,24.56
2022-08-03T19:12:30.789Z,24.34
2022-08-03T19:17:38.412Z,24.07
2022-08-03T19:22:39.698Z,23.84
2022-08-03T19:27:48.231Z,23.64
2022-08-03T19:32:50.373Z,23.49
2022-08-03T19:37:51.758Z,23.35
2022-08-03T19:42:57.755Z,23.25
2022-08-03T19:48:09.421Z,23.10
2022-08-03T19:53:12.105Z,22.96
2022-08-03T19:58:17.739Z,22.81
2022-08-03T20:03:42.891Z,22.64
2022-08-03T20:08:44.755Z,22.48
2022-08-03T20:13:50.832Z,22.30
2022-08-03T20:18:51.937Z,22.14
2022-08-03T20:24:03.200Z,22.01
2022-08-03T20:29:42.824Z,21.87
2022-08-03T20:34:51.685Z,21.76
2022-08-03T20:39:54.473Z,21.69
2022-08-03T20:45:04.317Z,21.59
2022-08-03T20:50:07.723Z,21.47
2022-08-03T20:55:12.868Z,21.36
2022-08-03T21:00:17.902Z,21.24
2022-08-03T21:05:21.110Z,21.12
2022-08-03T21:10:33.819Z,20.97
2022-08-03T21:16:06.755Z,20.82
2022-08-03T21:21:02.845Z,20.72
2022-08-03T21:26:04.849Z,20.62
2022-08-03T21:31:07.169Z,20.53
2022-08-03T21:36:08.354Z,20.43
2022-08-03T21:41:10.022Z,20.33
2022-08-03T21:46:13.805Z,20.23
2022-08-03T21:51:18.508Z,20.13
2022-08-03T21:56:21.343Z,20.02
2022-08-03T22:01:26.867Z,19.94
2022-08-03T22:06:28.010Z,19.90
2022-08-03T22:11:29.373Z,19.86
2022-08-03T22:16:30.945Z,19.80
2022-08-03T22:21:35.748Z,19.72
2022-08-03T22:26:40.114Z,19.61
2022-08-03T22:31:58.916Z,19.50
2022-08-03T22:37:02.239Z,19.40
2022-08-03T22:42:05.052Z,19.30
2022-08-03T22:47:08.810Z,19.21
2022-08-03T22:52:11.157Z,19.49
2022-08-03T22:57:13.320Z,20.53
2022-08-03T23:02:21.106Z,21.19
2022-08-03T23:07:29.887Z,21.59
2022-08-03T23:12:34.239Z,21.53
2022-08-03T23:17:57.612Z,20.62
2022-08-03T23:23:00.466Z,19.96
2022-08-03T23:28:05.391Z,19.58
2022-08-03T23:33:08.533Z,19.27
2022-08-03T23:38:22.064Z,18.98
2022-08-03T23:43:45.274Z,18.75
2022-08-03T23:48:50.274Z,19.00
2022-08-03T23:54:01.912Z,20.00
2022-08-03T23:59:21.618Z,20.62
